DUB weather

Dublin Airport
Dublin, County Dublin, Ireland

Public forecast

Using degrees Celsius for public forecast. Weather courtesy of forecast.io.

METAR (pilot weather report)

Retrieved 2018/10/17 04:30 UTC (12 minutes ago):

EIDW 170430Z 25009KT 220V280 9999 FEW017 10/08 Q1014 NOSIG

TAF (pilot weather forecast)

Forecast is more than 6 hours old.

Retrieved 2018/10/16 18:11 UTC (11 hours ago):

TAF EIDW 161700Z 1618/1718 23008KT 9999 FEW015 BECMG 1701/1703 26010KT PROB30 TEMPO 1704/1708 24005KT 4000 BR BECMG 1710/1712 32008KT